sensor_id;sensor_type;location;lat;lon;timestamp;pressure;altitude;pressure_sealevel;temperature;humidity
7532;BME280;3807;49.030;8.714;2023-11-19T00:01:51;99251.13;;;10.08;78.01
7532;BME280;3807;49.030;8.714;2023-11-19T00:04:16;99246.63;;;10.14;77.48
7532;BME280;3807;49.030;8.714;2023-11-19T00:06:42;99243.75;;;9.98;77.79
7532;BME280;3807;49.030;8.714;2023-11-19T00:09:07;99236.91;;;10.00;77.07
7532;BME280;3807;49.030;8.714;2023-11-19T00:11:33;99240.81;;;10.11;76.86
7532;BME280;3807;49.030;8.714;2023-11-19T00:13:58;99246.22;;;10.01;77.62
7532;BME280;3807;49.030;8.714;2023-11-19T00:16:23;99234.13;;;10.08;76.81
7532;BME280;3807;49.030;8.714;2023-11-19T00:18:49;99228.50;;;9.98;77.78
7532;BME280;3807;49.030;8.714;2023-11-19T00:21:15;99224.19;;;10.00;77.90
7532;BME280;3807;49.030;8.714;2023-11-19T00:23:40;99223.06;;;9.83;78.24
7532;BME280;3807;49.030;8.714;2023-11-19T00:26:05;99218.50;;;9.94;78.15
7532;BME280;3807;49.030;8.714;2023-11-19T00:28:32;99230.59;;;9.86;78.24
7532;BME280;3807;49.030;8.714;2023-11-19T00:30:58;99223.66;;;9.91;78.07
7532;BME280;3807;49.030;8.714;2023-11-19T00:33:23;99218.22;;;10.01;77.49
7532;BME280;3807;49.030;8.714;2023-11-19T00:35:49;99210.06;;;9.92;78.29
7532;BME280;3807;49.030;8.714;2023-11-19T00:38:15;99191.53;;;9.88;77.67
7532;BME280;3807;49.030;8.714;2023-11-19T00:40:41;99204.34;;;9.85;78.31
7532;BME280;3807;49.030;8.714;2023-11-19T00:43:06;99189.03;;;9.87;78.58
7532;BME280;3807;49.030;8.714;2023-11-19T00:45:32;99182.19;;;9.89;78.21
7532;BME280;3807;49.030;8.714;2023-11-19T00:47:58;99179.44;;;9.95;78.04
7532;BME280;3807;49.030;8.714;2023-11-19T00:50:24;99171.06;;;9.91;78.20
7532;BME280;3807;49.030;8.714;2023-11-19T00:52:50;99172.00;;;10.14;77.82
7532;BME280;3807;49.030;8.714;2023-11-19T00:55:15;99171.19;;;9.88;78.36
7532;BME280;3807;49.030;8.714;2023-11-19T00:57:40;99164.84;;;10.00;77.58
7532;BME280;3807;49.030;8.714;2023-11-19T01:00:06;99168.47;;;10.18;78.73
7532;BME280;3807;49.030;8.714;2023-11-19T01:02:40;99165.53;;;10.05;77.43
7532;BME280;3807;49.030;8.714;2023-11-19T01:05:08;99170.66;;;10.03;78.38
7532;BME280;3807;49.030;8.714;2023-11-19T01:07:33;99168.81;;;10.09;78.41
7532;BME280;3807;49.030;8.714;2023-11-19T01:09:58;99171.69;;;10.23;77.02
7532;BME280;3807;49.030;8.714;2023-11-19T01:12:24;99167.00;;;10.12;77.26
7532;BME280;3807;49.030;8.714;2023-11-19T01:14:49;99158.09;;;9.99;77.65
7532;BME280;3807;49.030;8.714;2023-11-19T01:17:15;99162.56;;;10.17;77.72
7532;BME280;3807;49.030;8.714;2023-11-19T01:19:41;99164.25;;;10.18;77.56
7532;BME280;3807;49.030;8.714;2023-11-19T01:22:06;99172.81;;;10.16;77.81
7532;BME280;3807;49.030;8.714;2023-11-19T01:24:32;99161.63;;;10.20;77.15
7532;BME280;3807;49.030;8.714;2023-11-19T01:26:57;99161.78;;;10.15;77.45
7532;BME280;3807;49.030;8.714;2023-11-19T01:29:25;99156.44;;;10.23;76.48
7532;BME280;3807;49.030;8.714;2023-11-19T01:31:50;99164.25;;;10.18;77.71
7532;BME280;3807;49.030;8.714;2023-11-19T01:34:18;99164.84;;;10.25;78.18
7532;BME280;3807;49.030;8.714;2023-11-19T01:36:43;99158.72;;;10.32;77.62
7532;BME280;3807;49.030;8.714;2023-11-19T01:39:09;99153.66;;;10.31;77.54
7532;BME280;3807;49.030;8.714;2023-11-19T01:41:35;99160.16;;;10.39;77.28
7532;BME280;3807;49.030;8.714;2023-11-19T01:44:01;99158.75;;;10.31;77.69
7532;BME280;3807;49.030;8.714;2023-11-19T01:46:26;99147.84;;;10.27;78.68
7532;BME280;3807;49.030;8.714;2023-11-19T01:48:52;99150.56;;;10.21;79.12
7532;BME280;3807;49.030;8.714;2023-11-19T01:51:19;99153.66;;;10.31;79.20
7532;BME280;3807;49.030;8.714;2023-11-19T01:53:45;99149.28;;;10.34;78.87
7532;BME280;3807;49.030;8.714;2023-11-19T01:56:13;99147.91;;;10.24;79.55
7532;BME280;3807;49.030;8.714;2023-11-19T01:58:40;99146.47;;;10.42;79.71
7532;BME280;3807;49.030;8.714;2023-11-19T02:01:06;99142.09;;;10.45;79.78
7532;BME280;3807;49.030;8.714;2023-11-19T02:03:33;99141.59;;;10.59;80.16
7532;BME280;3807;49.030;8.714;2023-11-19T02:06:01;99134.31;;;10.50;81.03
7532;BME280;3807;49.030;8.714;2023-11-19T02:08:26;99136.06;;;10.48;80.64
7532;BME280;3807;49.030;8.714;2023-11-19T02:10:52;99133.59;;;10.46;81.18
7532;BME280;3807;49.030;8.714;2023-11-19T02:13:18;99134.84;;;10.58;82.28
7532;BME280;3807;49.030;8.714;2023-11-19T02:15:44;99132.13;;;10.63;81.72
7532;BME280;3807;49.030;8.714;2023-11-19T02:18:20;99132.31;;;10.58;82.25
7532;BME280;3807;49.030;8.714;2023-11-19T02:20:46;99132.69;;;10.71;81.78
7532;BME280;3807;49.030;8.714;2023-11-19T02:23:13;99127.63;;;10.69;81.76
7532;BME280;3807;49.030;8.714;2023-11-19T02:25:39;99136.88;;;10.72;81.70
7532;BME280;3807;49.030;8.714;2023-11-19T02:28:05;99121.59;;;10.72;82.71
7532;BME280;3807;49.030;8.714;2023-11-19T02:30:31;99130.69;;;10.79;82.25
7532;BME280;3807;49.030;8.714;2023-11-19T02:32:58;99126.31;;;10.83;81.82
7532;BME280;3807;49.030;8.714;2023-11-19T02:35:26;99133.22;;;10.79;81.19
7532;BME280;3807;49.030;8.714;2023-11-19T02:37:51;99134.16;;;10.77;82.42
7532;BME280;3807;49.030;8.714;2023-11-19T02:40:17;99131.50;;;10.80;82.44
7532;BME280;3807;49.030;8.714;2023-11-19T02:42:42;99127.19;;;10.82;82.67
7532;BME280;3807;49.030;8.714;2023-11-19T02:45:08;99121.81;;;10.89;82.85
7532;BME280;3807;49.030;8.714;2023-11-19T02:47:38;99125.72;;;10.98;82.58
7532;BME280;3807;49.030;8.714;2023-11-19T02:50:04;99131.09;;;10.90;83.13
7532;BME280;3807;49.030;8.714;2023-11-19T02:52:32;99123.47;;;10.90;83.01
7532;BME280;3807;49.030;8.714;2023-11-19T02:55:02;99111.53;;;10.91;82.79
7532;BME280;3807;49.030;8.714;2023-11-19T02:57:31;99106.88;;;11.02;82.07
7532;BME280;3807;49.030;8.714;2023-11-19T02:59:56;99107.00;;;10.99;82.63
7532;BME280;3807;49.030;8.714;2023-11-19T03:02:22;99105.88;;;11.06;82.14
7532;BME280;3807;49.030;8.714;2023-11-19T03:04:47;99110.41;;;10.98;83.60
7532;BME280;3807;49.030;8.714;2023-11-19T03:07:12;99108.66;;;11.00;82.94
7532;BME280;3807;49.030;8.714;2023-11-19T03:09:38;99104.63;;;11.16;83.26
7532;BME280;3807;49.030;8.714;2023-11-19T03:12:06;99106.28;;;11.17;83.37
7532;BME280;3807;49.030;8.714;2023-11-19T03:14:33;99110.38;;;11.21;82.83
7532;BME280;3807;49.030;8.714;2023-11-19T03:16:59;99119.03;;;11.17;83.17
7532;BME280;3807;49.030;8.714;2023-11-19T03:19:24;99122.03;;;11.27;82.88
7532;BME280;3807;49.030;8.714;2023-11-19T03:21:52;99117.19;;;11.21;83.06
7532;BME280;3807;49.030;8.714;2023-11-19T03:24:17;99105.84;;;11.28;83.73
7532;BME280;3807;49.030;8.714;2023-11-19T03:26:42;99103.41;;;11.25;84.37
7532;BME280;3807;49.030;8.714;2023-11-19T03:29:08;99104.56;;;11.18;84.30
7532;BME280;3807;49.030;8.714;2023-11-19T03:31:33;99107.94;;;11.40;83.96
7532;BME280;3807;49.030;8.714;2023-11-19T03:33:58;99106.38;;;11.36;83.60
7532;BME280;3807;49.030;8.714;2023-11-19T03:36:24;99105.22;;;11.43;83.96
7532;BME280;3807;49.030;8.714;2023-11-19T03:38:49;99101.22;;;11.38;84.15
7532;BME280;3807;49.030;8.714;2023-11-19T03:41:14;99106.78;;;11.48;83.55
7532;BME280;3807;49.030;8.714;2023-11-19T03:43:41;99102.28;;;11.54;83.51
7532;BME280;3807;49.030;8.714;2023-11-19T03:46:19;99090.78;;;11.44;83.50
7532;BME280;3807;49.030;8.714;2023-11-19T03:48:46;99091.59;;;11.44;84.28
7532;BME280;3807;49.030;8.714;2023-11-19T03:51:12;99095.38;;;11.56;83.61
7532;BME280;3807;49.030;8.714;2023-11-19T03:53:44;99100.47;;;11.56;83.47
7532;BME280;3807;49.030;8.714;2023-11-19T03:56:10;99102.97;;;11.58;82.93
7532;BME280;3807;49.030;8.714;2023-11-19T03:58:36;99100.53;;;11.55;84.01
7532;BME280;3807;49.030;8.714;2023-11-19T04:01:03;99107.69;;;11.67;83.37
7532;BME280;3807;49.030;8.714;2023-11-19T04:03:29;99095.63;;;11.71;83.31
7532;BME280;3807;49.030;8.714;2023-11-19T04:05:54;99093.28;;;11.66;83.82
7532;BME280;3807;49.030;8.714;2023-11-19T04:08:19;99100.97;;;11.64;83.77
7532;BME280;3807;49.030;8.714;2023-11-19T04:10:45;99093.28;;;11.66;83.54
7532;BME280;3807;49.030;8.714;2023-11-19T04:13:10;99101.44;;;11.74;84.25
7532;BME280;3807;49.030;8.714;2023-11-19T04:15:35;99092.63;;;11.81;83.72
7532;BME280;3807;49.030;8.714;2023-11-19T04:18:01;99093.66;;;11.77;83.37
7532;BME280;3807;49.030;8.714;2023-11-19T04:20:26;99084.03;;;11.84;84.23
7532;BME280;3807;49.030;8.714;2023-11-19T04:22:52;99084.47;;;11.73;84.34
7532;BME280;3807;49.030;8.714;2023-11-19T04:25:18;99088.94;;;11.88;84.24
7532;BME280;3807;49.030;8.714;2023-11-19T04:27:44;99078.81;;;11.87;83.75
7532;BME280;3807;49.030;8.714;2023-11-19T04:30:10;99070.34;;;11.86;84.83
7532;BME280;3807;49.030;8.714;2023-11-19T04:32:36;99075.19;;;11.93;83.92
7532;BME280;3807;49.030;8.714;2023-11-19T04:35:01;99071.84;;;11.90;84.47
7532;BME280;3807;49.030;8.714;2023-11-19T04:37:27;99058.84;;;11.76;84.69
7532;BME280;3807;49.030;8.714;2023-11-19T04:39:52;99055.13;;;11.83;84.64
7532;BME280;3807;49.030;8.714;2023-11-19T04:42:17;99061.09;;;11.84;84.16
7532;BME280;3807;49.030;8.714;2023-11-19T04:44:43;99062.13;;;11.78;85.67
7532;BME280;3807;49.030;8.714;2023-11-19T04:47:09;99068.63;;;11.87;84.26
7532;BME280;3807;49.030;8.714;2023-11-19T04:49:40;99068.34;;;11.93;84.81
7532;BME280;3807;49.030;8.714;2023-11-19T04:52:05;99067.38;;;11.96;84.85
7532;BME280;3807;49.030;8.714;2023-11-19T04:54:30;99060.19;;;11.85;84.95
7532;BME280;3807;49.030;8.714;2023-11-19T04:56:56;99063.94;;;11.97;85.73
7532;BME280;3807;49.030;8.714;2023-11-19T04:59:21;99064.97;;;11.93;84.86
7532;BME280;3807;49.030;8.714;2023-11-19T05:01:47;99070.50;;;12.02;85.07
7532;BME280;3807;49.030;8.714;2023-11-19T05:04:13;99076.03;;;12.12;85.39
7532;BME280;3807;49.030;8.714;2023-11-19T05:06:38;99075.09;;;12.14;85.24
7532;BME280;3807;49.030;8.714;2023-11-19T05:09:03;99071.63;;;12.15;85.51
7532;BME280;3807;49.030;8.714;2023-11-19T05:11:37;99059.63;;;12.18;84.68
7532;BME280;3807;49.030;8.714;2023-11-19T05:14:03;99058.94;;;12.14;85.21
7532;BME280;3807;49.030;8.714;2023-11-19T05:16:29;99048.03;;;12.29;84.49
7532;BME280;3807;49.030;8.714;2023-11-19T05:18:55;99058.25;;;12.29;84.71
7532;BME280;3807;49.030;8.714;2023-11-19T05:21:20;99060.81;;;12.29;84.07
7532;BME280;3807;49.030;8.714;2023-11-19T05:23:46;99057.69;;;12.23;85.04
7532;BME280;3807;49.030;8.714;2023-11-19T05:26:19;99057.50;;;12.27;84.38
7532;BME280;3807;49.030;8.714;2023-11-19T05:28:45;99053.97;;;12.11;84.94
7532;BME280;3807;49.030;8.714;2023-11-19T05:31:10;99054.75;;;12.32;84.39
7532;BME280;3807;49.030;8.714;2023-11-19T05:33:36;99055.81;;;12.26;84.63
7532;BME280;3807;49.030;8.714;2023-11-19T05:36:01;99050.88;;;12.42;84.53
7532;BME280;3807;49.030;8.714;2023-11-19T05:38:28;99054.41;;;12.21;83.99
7532;BME280;3807;49.030;8.714;2023-11-19T05:40:54;99072.25;;;12.39;84.86
7532;BME280;3807;49.030;8.714;2023-11-19T05:43:19;99065.28;;;12.43;83.93
7532;BME280;3807;49.030;8.714;2023-11-19T05:45:45;99066.81;;;12.47;84.03
7532;BME280;3807;49.030;8.714;2023-11-19T05:48:10;99064.59;;;12.39;84.51
7532;BME280;3807;49.030;8.714;2023-11-19T05:50:36;99061.69;;;12.47;83.80
7532;BME280;3807;49.030;8.714;2023-11-19T05:53:01;99054.44;;;12.57;83.66
7532;BME280;3807;49.030;8.714;2023-11-19T05:55:26;99056.72;;;12.44;84.26
7532;BME280;3807;49.030;8.714;2023-11-19T05:57:53;99057.50;;;12.46;84.00
7532;BME280;3807;49.030;8.714;2023-11-19T06:00:18;99045.81;;;12.40;83.93
7532;BME280;3807;49.030;8.714;2023-11-19T06:02:44;99061.78;;;12.46;84.98
7532;BME280;3807;49.030;8.714;2023-11-19T06:05:09;99069.31;;;12.49;83.94
7532;BME280;3807;49.030;8.714;2023-11-19T06:07:35;99057.56;;;12.45;84.58
7532;BME280;3807;49.030;8.714;2023-11-19T06:10:02;99068.13;;;12.56;83.83
7532;BME280;3807;49.030;8.714;2023-11-19T06:12:28;99067.00;;;12.61;83.32
7532;BME280;3807;49.030;8.714;2023-11-19T06:14:53;99052.84;;;12.54;84.58
7532;BME280;3807;49.030;8.714;2023-11-19T06:17:19;99051.84;;;12.39;84.54
7532;BME280;3807;49.030;8.714;2023-11-19T06:19:44;99053.28;;;12.45;85.61
7532;BME280;3807;49.030;8.714;2023-11-19T06:22:10;99048.44;;;12.58;84.02
7532;BME280;3807;49.030;8.714;2023-11-19T06:24:36;99045.97;;;12.56;84.59
7532;BME280;3807;49.030;8.714;2023-11-19T06:27:02;99052.81;;;12.56;84.59
7532;BME280;3807;49.030;8.714;2023-11-19T06:29:28;99060.03;;;12.65;84.68
7532;BME280;3807;49.030;8.714;2023-11-19T06:31:53;99048.31;;;12.42;85.54
7532;BME280;3807;49.030;8.714;2023-11-19T06:34:18;99043.69;;;12.50;84.45
7532;BME280;3807;49.030;8.714;2023-11-19T06:36:44;99053.50;;;12.59;85.08
7532;BME280;3807;49.030;8.714;2023-11-19T06:39:09;99048.03;;;12.67;85.04
7532;BME280;3807;49.030;8.714;2023-11-19T06:41:36;99056.47;;;12.69;84.24
7532;BME280;3807;49.030;8.714;2023-11-19T06:44:03;99068.31;;;12.70;84.85
7532;BME280;3807;49.030;8.714;2023-11-19T06:46:29;99085.53;;;12.67;84.94
7532;BME280;3807;49.030;8.714;2023-11-19T06:48:55;99078.53;;;12.70;84.67
7532;BME280;3807;49.030;8.714;2023-11-19T06:51:20;99077.91;;;12.65;85.21
7532;BME280;3807;49.030;8.714;2023-11-19T06:53:46;99071.34;;;12.78;84.48
7532;BME280;3807;49.030;8.714;2023-11-19T06:56:21;99085.56;;;12.84;84.09
7532;BME280;3807;49.030;8.714;2023-11-19T06:58:46;99079.38;;;12.71;84.55
7532;BME280;3807;49.030;8.714;2023-11-19T07:01:14;99077.28;;;12.79;84.67
7532;BME280;3807;49.030;8.714;2023-11-19T07:03:40;99082.03;;;12.86;84.56
7532;BME280;3807;49.030;8.714;2023-11-19T07:06:05;99090.00;;;12.80;84.42
7532;BME280;3807;49.030;8.714;2023-11-19T07:08:31;99099.31;;;12.81;85.44
7532;BME280;3807;49.030;8.714;2023-11-19T07:10:56;99096.63;;;12.84;84.42
7532;BME280;3807;49.030;8.714;2023-11-19T07:13:21;99091.66;;;12.81;84.69
7532;BME280;3807;49.030;8.714;2023-11-19T07:15:46;99096.75;;;12.81;83.91
7532;BME280;3807;49.030;8.714;2023-11-19T07:18:12;99089.84;;;12.83;84.74
7532;BME280;3807;49.030;8.714;2023-11-19T07:20:37;99105.75;;;12.90;84.32
7532;BME280;3807;49.030;8.714;2023-11-19T07:23:03;99107.94;;;12.98;83.99
7532;BME280;3807;49.030;8.714;2023-11-19T07:25:29;99119.34;;;12.91;84.51
7532;BME280;3807;49.030;8.714;2023-11-19T07:27:54;99122.78;;;12.90;84.81
7532;BME280;3807;49.030;8.714;2023-11-19T07:30:19;99117.94;;;13.02;84.04
7532;BME280;3807;49.030;8.714;2023-11-19T07:32:45;99111.59;;;12.92;84.43
7532;BME280;3807;49.030;8.714;2023-11-19T07:35:10;99114.91;;;12.94;85.07
7532;BME280;3807;49.030;8.714;2023-11-19T07:37:36;99133.34;;;13.01;84.35
7532;BME280;3807;49.030;8.714;2023-11-19T07:40:02;99128.84;;;13.06;83.24
7532;BME280;3807;49.030;8.714;2023-11-19T07:42:28;99143.13;;;13.10;83.53
7532;BME280;3807;49.030;8.714;2023-11-19T07:44:54;99141.16;;;12.98;84.03
7532;BME280;3807;49.030;8.714;2023-11-19T07:47:21;99140.84;;;13.04;83.93
7532;BME280;3807;49.030;8.714;2023-11-19T07:49:48;99146.19;;;13.18;83.64
7532;BME280;3807;49.030;8.714;2023-11-19T07:52:14;99138.25;;;13.05;84.02
7532;BME280;3807;49.030;8.714;2023-11-19T07:54:39;99144.31;;;13.03;84.09
7532;BME280;3807;49.030;8.714;2023-11-19T07:57:04;99140.81;;;13.05;83.45
7532;BME280;3807;49.030;8.714;2023-11-19T07:59:30;99147.50;;;13.08;84.53
7532;BME280;3807;49.030;8.714;2023-11-19T08:01:55;99150.88;;;13.08;84.52
7532;BME280;3807;49.030;8.714;2023-11-19T08:04:20;99149.75;;;13.14;85.31
7532;BME280;3807;49.030;8.714;2023-11-19T08:06:46;99143.69;;;13.17;83.81
7532;BME280;3807;49.030;8.714;2023-11-19T08:09:11;99154.44;;;13.23;83.66
7532;BME280;3807;49.030;8.714;2023-11-19T08:11:40;99164.13;;;13.17;84.83
7532;BME280;3807;49.030;8.714;2023-11-19T08:14:05;99155.88;;;13.11;84.74
7532;BME280;3807;49.030;8.714;2023-11-19T08:16:30;99155.63;;;13.16;84.67
7532;BME280;3807;49.030;8.714;2023-11-19T08:18:56;99165.13;;;13.33;83.83
7532;BME280;3807;49.030;8.714;2023-11-19T08:21:23;99167.38;;;13.39;83.62
7532;BME280;3807;49.030;8.714;2023-11-19T08:23:48;99174.81;;;13.26;84.06
7532;BME280;3807;49.030;8.714;2023-11-19T08:26:14;99191.66;;;13.30;84.38
7532;BME280;3807;49.030;8.714;2023-11-19T08:28:40;99188.69;;;13.40;84.11
7532;BME280;3807;49.030;8.714;2023-11-19T08:31:05;99179.41;;;13.37;83.94
7532;BME280;3807;49.030;8.714;2023-11-19T08:33:31;99175.47;;;13.30;84.10
7532;BME280;3807;49.030;8.714;2023-11-19T08:35:57;99171.66;;;13.39;84.29
7532;BME280;3807;49.030;8.714;2023-11-19T08:38:23;99176.78;;;13.39;83.87
7532;BME280;3807;49.030;8.714;2023-11-19T08:40:49;99155.97;;;13.46;83.57
7532;BME280;3807;49.030;8.714;2023-11-19T08:43:14;99158.34;;;13.32;85.19
7532;BME280;3807;49.030;8.714;2023-11-19T08:45:39;99171.66;;;13.39;85.33
7532;BME280;3807;49.030;8.714;2023-11-19T08:48:05;99162.44;;;13.53;84.45
7532;BME280;3807;49.030;8.714;2023-11-19T08:50:30;99162.63;;;13.49;84.21
7532;BME280;3807;49.030;8.714;2023-11-19T08:52:56;99169.28;;;13.53;84.52
7532;BME280;3807;49.030;8.714;2023-11-19T08:55:21;99173.00;;;13.46;85.02
7532;BME280;3807;49.030;8.714;2023-11-19T08:57:46;99164.84;;;13.56;84.33
7532;BME280;3807;49.030;8.714;2023-11-19T09:00:12;99165.16;;;13.50;85.33
7532;BME280;3807;49.030;8.714;2023-11-19T09:02:39;99173.72;;;13.49;84.09
7532;BME280;3807;49.030;8.714;2023-11-19T09:05:05;99177.72;;;13.55;83.95
7532;BME280;3807;49.030;8.714;2023-11-19T09:07:32;99178.47;;;13.57;84.24
7532;BME280;3807;49.030;8.714;2023-11-19T09:09:58;99169.28;;;13.53;84.78
7532;BME280;3807;49.030;8.714;2023-11-19T09:12:23;99186.44;;;13.51;84.23
7532;BME280;3807;49.030;8.714;2023-11-19T09:14:49;99180.94;;;13.58;84.27
7532;BME280;3807;49.030;8.714;2023-11-19T09:17:14;99187.03;;;13.56;85.26
7532;BME280;3807;49.030;8.714;2023-11-19T09:19:40;99189.13;;;13.48;85.10
7532;BME280;3807;49.030;8.714;2023-11-19T09:22:05;99193.59;;;13.62;85.01
7532;BME280;3807;49.030;8.714;2023-11-19T09:24:31;99192.09;;;13.57;84.34
7532;BME280;3807;49.030;8.714;2023-11-19T09:26:56;99185.09;;;13.61;85.08
7532;BME280;3807;49.030;8.714;2023-11-19T09:29:22;99184.81;;;13.67;84.82
7532;BME280;3807;49.030;8.714;2023-11-19T09:31:48;99183.66;;;13.73;83.93
7532;BME280;3807;49.030;8.714;2023-11-19T09:34:14;99189.78;;;13.70;84.56
7532;BME280;3807;49.030;8.714;2023-11-19T09:36:39;99186.31;;;13.71;84.51
7532;BME280;3807;49.030;8.714;2023-11-19T09:39:09;99189.53;;;13.75;84.66
7532;BME280;3807;49.030;8.714;2023-11-19T09:41:34;99195.72;;;13.71;84.56
7532;BME280;3807;49.030;8.714;2023-11-19T09:44:00;99193.91;;;13.73;84.47
7532;BME280;3807;49.030;8.714;2023-11-19T09:46:26;99192.16;;;13.91;84.57
7532;BME280;3807;49.030;8.714;2023-11-19T09:48:55;99190.13;;;13.80;84.56
7532;BME280;3807;49.030;8.714;2023-11-19T09:51:21;99192.31;;;13.88;83.24
7532;BME280;3807;49.030;8.714;2023-11-19T09:53:47;99203.03;;;13.78;85.26
7532;BME280;3807;49.030;8.714;2023-11-19T09:56:13;99201.72;;;13.87;84.68
7532;BME280;3807;49.030;8.714;2023-11-19T09:58:39;99194.38;;;13.98;84.04
7532;BME280;3807;49.030;8.714;2023-11-19T10:01:05;99203.47;;;14.04;83.72
7532;BME280;3807;49.030;8.714;2023-11-19T10:03:34;99201.81;;;14.03;83.42
7532;BME280;3807;49.030;8.714;2023-11-19T10:06:06;99199.66;;;13.95;83.98
7532;BME280;3807;49.030;8.714;2023-11-19T10:08:32;99181.19;;;13.89;84.69
7532;BME280;3807;49.030;8.714;2023-11-19T10:10:58;99186.59;;;14.00;83.98
7532;BME280;3807;49.030;8.714;2023-11-19T10:13:28;99187.19;;;14.05;84.82
7532;BME280;3807;49.030;8.714;2023-11-19T10:15:55;99184.34;;;14.11;83.82
7532;BME280;3807;49.030;8.714;2023-11-19T10:18:25;99176.19;;;14.20;83.31
7532;BME280;3807;49.030;8.714;2023-11-19T10:20:51;99173.22;;;14.12;84.35
7532;BME280;3807;49.030;8.714;2023-11-19T10:23:17;99170.56;;;14.14;83.92
7532;BME280;3807;49.030;8.714;2023-11-19T10:25:42;99170.13;;;14.05;84.46
7532;BME280;3807;49.030;8.714;2023-11-19T10:28:07;99171.22;;;14.17;84.14
7532;BME280;3807;49.030;8.714;2023-11-19T10:30:33;99171.66;;;14.25;84.06
7532;BME280;3807;49.030;8.714;2023-11-19T10:35:27;99180.72;;;14.15;84.71
7532;BME280;3807;49.030;8.714;2023-11-19T10:37:53;99177.91;;;14.37;83.58
7532;BME280;3807;49.030;8.714;2023-11-19T10:40:18;99177.50;;;14.45;83.47
7532;BME280;3807;49.030;8.714;2023-11-19T10:42:43;99174.19;;;14.43;83.58
7532;BME280;3807;49.030;8.714;2023-11-19T10:45:22;99171.88;;;14.38;83.19
7532;BME280;3807;49.030;8.714;2023-11-19T10:47:51;99168.53;;;14.36;83.18
7532;BME280;3807;49.030;8.714;2023-11-19T10:50:16;99177.00;;;14.38;83.67
7532;BME280;3807;49.030;8.714;2023-11-19T10:52:43;99172.09;;;14.51;83.44
7532;BME280;3807;49.030;8.714;2023-11-19T10:55:11;99172.69;;;14.56;83.19
7532;BME280;3807;49.030;8.714;2023-11-19T10:57:39;99168.47;;;14.55;82.82
7532;BME280;3807;49.030;8.714;2023-11-19T11:00:12;99165.66;;;14.60;82.30
7532;BME280;3807;49.030;8.714;2023-11-19T11:02:41;99162.19;;;14.43;82.91
7532;BME280;3807;49.030;8.714;2023-11-19T11:05:09;99164.94;;;14.73;82.27
7532;BME280;3807;49.030;8.714;2023-11-19T11:07:36;99152.38;;;14.85;81.99
7532;BME280;3807;49.030;8.714;2023-11-19T11:10:02;99168.91;;;14.79;81.84
7532;BME280;3807;49.030;8.714;2023-11-19T11:12:34;99172.38;;;14.78;82.21
7532;BME280;3807;49.030;8.714;2023-11-19T11:15:02;99159.00;;;14.89;82.57
7532;BME280;3807;49.030;8.714;2023-11-19T11:17:31;99164.88;;;14.91;81.87
7532;BME280;3807;49.030;8.714;2023-11-19T11:19:57;99168.31;;;15.06;81.33
7532;BME280;3807;49.030;8.714;2023-11-19T11:22:22;99167.16;;;14.95;81.31
7532;BME280;3807;49.030;8.714;2023-11-19T11:25:03;99165.03;;;14.88;82.03
7532;BME280;3807;49.030;8.714;2023-11-19T11:27:53;99163.78;;;14.95;80.62
7532;BME280;3807;49.030;8.714;2023-11-19T11:33:26;99145.91;;;15.09;82.05
7532;BME280;3807;49.030;8.714;2023-11-19T11:38:36;99150.47;;;15.04;81.47
7532;BME280;3807;49.030;8.714;2023-11-19T11:41:19;99146.16;;;15.20;81.21
7532;BME280;3807;49.030;8.714;2023-11-19T11:43:46;99148.91;;;15.17;81.46
7532;BME280;3807;49.030;8.714;2023-11-19T11:49:05;99131.75;;;15.02;81.68
7532;BME280;3807;49.030;8.714;2023-11-19T11:54:09;99105.84;;;15.22;81.12
7532;BME280;3807;49.030;8.714;2023-11-19T11:56:38;99109.94;;;15.11;81.27
7532;BME280;3807;49.030;8.714;2023-11-19T11:59:07;99109.16;;;15.24;80.77
7532;BME280;3807;49.030;8.714;2023-11-19T12:01:33;99110.00;;;15.25;80.76
7532;BME280;3807;49.030;8.714;2023-11-19T12:03:58;99110.13;;;15.38;80.94
7532;BME280;3807;49.030;8.714;2023-11-19T12:06:24;99105.94;;;15.21;81.11
7532;BME280;3807;49.030;8.714;2023-11-19T12:08:52;99107.97;;;15.30;80.64
7532;BME280;3807;49.030;8.714;2023-11-19T12:11:17;99099.63;;;15.27;80.69
7532;BME280;3807;49.030;8.714;2023-11-19T12:13:55;99098.94;;;15.39;80.61
7532;BME280;3807;49.030;8.714;2023-11-19T12:16:23;99095.38;;;15.41;80.95
7532;BME280;3807;49.030;8.714;2023-11-19T12:18:49;99091.00;;;15.58;80.94
7532;BME280;3807;49.030;8.714;2023-11-19T12:21:30;99084.28;;;15.41;80.98
7532;BME280;3807;49.030;8.714;2023-11-19T12:23:57;99085.53;;;15.34;80.70
7532;BME280;3807;49.030;8.714;2023-11-19T12:26:35;99077.28;;;15.29;81.33
7532;BME280;3807;49.030;8.714;2023-11-19T12:29:02;99090.66;;;15.34;81.04
7532;BME280;3807;49.030;8.714;2023-11-19T12:31:29;99086.50;;;15.47;80.69
7532;BME280;3807;49.030;8.714;2023-11-19T12:33:54;99092.56;;;15.46;80.93
7532;BME280;3807;49.030;8.714;2023-11-19T12:36:20;99081.00;;;15.53;80.07
7532;BME280;3807;49.030;8.714;2023-11-19T12:38:45;99087.50;;;15.44;80.57
7532;BME280;3807;49.030;8.714;2023-11-19T12:41:11;99083.00;;;15.48;80.13
7532;BME280;3807;49.030;8.714;2023-11-19T12:43:37;99085.50;;;15.49;80.29
7532;BME280;3807;49.030;8.714;2023-11-19T12:46:19;99091.44;;;15.66;79.22
7532;BME280;3807;49.030;8.714;2023-11-19T12:48:46;99090.13;;;15.59;80.23
7532;BME280;3807;49.030;8.714;2023-11-19T12:51:12;99083.78;;;15.64;80.42
7532;BME280;3807;49.030;8.714;2023-11-19T12:53:51;99082.13;;;15.63;79.91
7532;BME280;3807;49.030;8.714;2023-11-19T12:56:19;99074.25;;;15.52;79.25
7532;BME280;3807;49.030;8.714;2023-11-19T12:58:45;99077.53;;;15.54;80.17
7532;BME280;3807;49.030;8.714;2023-11-19T13:01:16;99072.22;;;15.57;80.35
7532;BME280;3807;49.030;8.714;2023-11-19T13:03:42;99064.84;;;15.67;79.86
7532;BME280;3807;49.030;8.714;2023-11-19T13:06:09;99056.53;;;15.62;79.64
7532;BME280;3807;49.030;8.714;2023-11-19T13:08:48;99061.66;;;15.78;79.05
7532;BME280;3807;49.030;8.714;2023-11-19T13:11:15;99057.78;;;15.70;79.07
7532;BME280;3807;49.030;8.714;2023-11-19T13:14:05;99051.19;;;15.66;79.54
7532;BME280;3807;49.030;8.714;2023-11-19T13:16:33;99064.56;;;15.71;78.51
7532;BME280;3807;49.030;8.714;2023-11-19T13:19:01;99048.94;;;15.60;79.87
7532;BME280;3807;49.030;8.714;2023-11-19T13:21:26;99058.06;;;15.66;77.81
7532;BME280;3807;49.030;8.714;2023-11-19T13:23:52;99055.81;;;15.60;79.33
7532;BME280;3807;49.030;8.714;2023-11-19T13:26:17;99059.72;;;15.67;78.39
7532;BME280;3807;49.030;8.714;2023-11-19T13:28:43;99068.72;;;15.74;78.83
7532;BME280;3807;49.030;8.714;2023-11-19T13:31:08;99053.41;;;15.73;76.48
7532;BME280;3807;49.030;8.714;2023-11-19T13:33:33;99056.16;;;15.69;78.55